Time;durP1;ratioP1;P1;durP2;ratioP2;P2;SDS_P1;SDS_P2;PMS_P1;PMS_P2;Temp;Humidity;BMP_temperature;BMP_pressure;BME280_temperature;BME280_humidity;BME280_pressure;Samples;Min_cycle;Max_cycle;Signal;HPM_P1;HPM_P2
2021/06/16 00:03:35;;;;;;;;;;;15.00;99.90;;;;;;8392279;28;19904;-65
2021/06/16 00:07:35;;;;;;;;;;;15.20;99.90;;;;;;8392049;28;19908;-65
2021/06/16 00:11:36;;;;;;;;;;;15.10;99.90;;;;;;8391520;28;19973;-64
2021/06/16 00:15:38;;;;;;;;;;;14.90;99.90;;;;;;8391922;28;19945;-64
2021/06/16 00:19:39;;;;;;;;;;;14.90;99.90;;;;;;8392150;28;20451;-64
2021/06/16 00:23:39;;;;;;;;;;;14.90;99.90;;;;;;8390608;28;19948;-64
2021/06/16 00:27:40;;;;;;;;;;;15.00;99.90;;;;;;8391543;28;19966;-64
2021/06/16 00:31:41;;;;;;;;;;;14.70;99.90;;;;;;8392037;28;20290;-65
2021/06/16 00:35:41;;;;;;;;;;;14.70;99.90;;;;;;8391721;28;20481;-65
2021/06/16 00:39:42;;;;;;;;;;;14.50;99.90;;;;;;8391773;28;19908;-65
2021/06/16 00:43:42;;;;;;;;;;;14.40;99.90;;;;;;8391792;28;19904;-65
2021/06/16 00:47:43;;;;;;;;;;;14.50;99.90;;;;;;8395664;28;19909;-65
2021/06/16 00:51:44;;;;;;;;;;;14.70;99.90;;;;;;8423969;22;19974;-64
2021/06/16 00:55:44;;;;;;;;;;;14.80;99.90;;;;;;8429607;28;19984;-63
2021/06/16 00:59:48;;;;;;;;;;;14.70;99.90;;;;;;8430807;28;19918;-63
2021/06/16 01:03:59;;;;;;;;;;;14.40;99.90;;;;;;8409762;28;19909;-64
2021/06/16 01:08:01;;;;;;;;;;;14.30;99.90;;;;;;8397614;28;20320;-64
2021/06/16 01:12:08;;;;;;;;;;;14.10;99.90;;;;;;8397797;28;20322;-64
2021/06/16 01:16:21;;;;;;;;;;;14.00;99.90;;;;;;8397345;28;19904;-64
2021/06/16 01:20:35;;;;;;;;;;;13.90;99.90;;;;;;8397926;28;19915;-64
2021/06/16 01:24:39;;;;;;;;;;;13.80;99.90;;;;;;8397748;28;19950;-64
2021/06/16 01:28:43;;;;;;;;;;;13.80;99.90;;;;;;8397040;28;20309;-64
2021/06/16 01:32:45;;;;;;;;;;;14.20;99.90;;;;;;8396972;28;19904;-64
2021/06/16 01:36:46;;;;;;;;;;;14.20;99.90;;;;;;8397226;28;19957;-63
2021/06/16 01:40:48;;;;;;;;;;;14.00;99.90;;;;;;8395705;28;19915;-64
2021/06/16 01:44:51;;;;;;;;;;;14.10;99.90;;;;;;8397250;28;19950;-64
2021/06/16 01:48:52;;;;;;;;;;;13.90;99.90;;;;;;8396242;28;20009;-64
2021/06/16 01:52:55;;;;;;;;;;;13.90;99.90;;;;;;8396369;28;19916;-63
2021/06/16 01:56:55;;;;;;;;;;;13.90;99.90;;;;;;8394443;28;19904;-64
2021/06/16 02:00:56;;;;;;;;;;;13.80;99.90;;;;;;8395877;28;19912;-64
2021/06/16 02:04:57;;;;;;;;;;;13.70;99.90;;;;;;8396160;28;19912;-64
2021/06/16 02:08:59;;;;;;;;;;;13.70;99.90;;;;;;8395721;28;19939;-64
2021/06/16 02:13:01;;;;;;;;;;;13.90;99.90;;;;;;8395716;28;19904;-64
2021/06/16 02:17:06;;;;;;;;;;;13.90;99.90;;;;;;8395438;28;19911;-64
2021/06/16 02:21:07;;;;;;;;;;;13.60;99.90;;;;;;8394141;28;19905;-63
2021/06/16 02:25:08;;;;;;;;;;;13.70;99.90;;;;;;8395437;28;19938;-64
2021/06/16 02:29:09;;;;;;;;;;;13.70;99.90;;;;;;8395296;28;19957;-64
2021/06/16 02:33:09;;;;;;;;;;;13.50;99.90;;;;;;8393886;28;19935;-64
2021/06/16 02:37:12;;;;;;;;;;;13.60;99.90;;;;;;8394546;28;19908;-64
2021/06/16 02:41:14;;;;;;;;;;;13.60;99.90;;;;;;8395115;28;19982;-64
2021/06/16 02:45:16;;;;;;;;;;;13.60;99.90;;;;;;8393719;28;19911;-64
2021/06/16 02:49:17;;;;;;;;;;;13.40;99.90;;;;;;8395062;28;20025;-64
2021/06/16 02:53:19;;;;;;;;;;;13.40;99.90;;;;;;8393506;28;19946;-63
2021/06/16 02:57:20;;;;;;;;;;;13.50;99.90;;;;;;8394430;28;19983;-64
2021/06/16 03:01:21;;;;;;;;;;;13.50;99.90;;;;;;8394692;28;20036;-64
2021/06/16 03:05:22;;;;;;;;;;;13.70;99.90;;;;;;8394777;28;19940;-64
2021/06/16 03:09:24;;;;;;;;;;;13.50;99.90;;;;;;8393829;28;19912;-64
2021/06/16 03:13:26;;;;;;;;;;;13.30;99.90;;;;;;8392874;28;20394;-64
2021/06/16 03:17:27;;;;;;;;;;;13.30;99.90;;;;;;8393643;28;19908;-64
2021/06/16 03:21:28;;;;;;;;;;;13.20;99.90;;;;;;8393749;28;19904;-64
2021/06/16 03:25:29;;;;;;;;;;;13.10;99.90;;;;;;8393889;28;20381;-63
2021/06/16 03:29:30;;;;;;;;;;;13.00;99.90;;;;;;8393382;28;19938;-64
2021/06/16 03:33:30;;;;;;;;;;;13.00;99.90;;;;;;8384716;28;20007;-64
2021/06/16 03:37:32;;;;;;;;;;;13.10;99.90;;;;;;8359808;28;19974;-63
2021/06/16 03:41:34;;;;;;;;;;;13.10;99.90;;;;;;8373016;28;19908;-64
2021/06/16 03:45:35;;;;;;;;;;;13.30;99.90;;;;;;8391613;28;19913;-64
2021/06/16 03:49:37;;;;;;;;;;;13.50;99.90;;;;;;8392417;28;19913;-63
2021/06/16 03:53:38;;;;;;;;;;;13.40;99.90;;;;;;8392043;28;19920;-63
2021/06/16 03:57:39;;;;;;;;;;;13.20;99.90;;;;;;8359670;28;19919;-64
2021/06/16 04:01:40;;;;;;;;;;;13.00;99.90;;;;;;8358356;28;19904;-64
2021/06/16 04:05:40;;;;;;;;;;;13.00;99.90;;;;;;8384053;28;20374;-64
2021/06/16 04:09:41;;;;;;;;;;;13.10;99.90;;;;;;8390462;28;19917;-64
2021/06/16 04:13:41;;;;;;;;;;;13.30;99.90;;;;;;8391219;28;19909;-64
2021/06/16 04:17:42;;;;;;;;;;;13.30;99.90;;;;;;8392217;28;19919;-64
2021/06/16 04:21:42;;;;;;;;;;;13.30;99.90;;;;;;8391877;28;19912;-64
2021/06/16 04:25:43;;;;;;;;;;;13.60;99.90;;;;;;8391922;28;19909;-64
2021/06/16 04:29:43;;;;;;;;;;;13.80;99.90;;;;;;8392683;28;19954;-64
2021/06/16 04:33:44;;;;;;;;;;;14.10;99.90;;;;;;8387942;28;20258;-64
2021/06/16 04:37:45;;;;;;;;;;;14.20;99.90;;;;;;8373355;28;20427;-64
2021/06/16 04:41:45;;;;;;;;;;;14.30;99.90;;;;;;8390293;28;19962;-63
2021/06/16 04:45:46;;;;;;;;;;;14.80;99.90;;;;;;8389318;28;19942;-65
2021/06/16 04:49:46;;;;;;;;;;;14.70;99.90;;;;;;8390867;28;19915;-69
2021/06/16 04:53:47;;;;;;;;;;;14.70;99.90;;;;;;8390789;28;19912;-69
2021/06/16 04:57:47;;;;;;;;;;;14.90;99.90;;;;;;8368546;28;19913;-69
2021/06/16 05:01:48;;;;;;;;;;;15.00;99.90;;;;;;8359302;28;19927;-70
2021/06/16 05:05:48;;;;;;;;;;;15.20;99.90;;;;;;8372860;28;19926;-71
2021/06/16 05:09:49;;;;;;;;;;;15.40;99.90;;;;;;8373316;28;20192;-68
2021/06/16 05:13:49;;;;;;;;;;;15.50;99.90;;;;;;8360848;28;20035;-70
2021/06/16 05:17:50;;;;;;;;;;;15.60;99.90;;;;;;8389167;28;19912;-69
2021/06/16 05:21:50;;;;;;;;;;;15.60;99.90;;;;;;8391344;28;20419;-70
2021/06/16 05:25:52;;;;;;;;;;;15.70;99.90;;;;;;8383256;28;20267;-69
2021/06/16 05:29:53;;;;;;;;;;;15.90;99.90;;;;;;8359797;28;19913;-70
2021/06/16 05:33:54;;;;;;;;;;;16.10;99.90;;;;;;8362273;28;19935;-69
2021/06/16 05:37:54;;;;;;;;;;;16.30;99.90;;;;;;8367237;28;20039;-71
2021/06/16 05:41:55;;;;;;;;;;;16.70;99.90;;;;;;8392009;28;19920;-73
2021/06/16 05:45:55;;;;;;;;;;;17.00;99.90;;;;;;8378238;28;20022;-73
2021/06/16 05:49:56;;;;;;;;;;;17.20;99.90;;;;;;8380036;28;19924;-72
2021/06/16 05:53:56;;;;;;;;;;;17.40;99.90;;;;;;8383927;28;19943;-69
2021/06/16 05:57:57;;;;;;;;;;;17.50;99.90;;;;;;8368163;28;20013;-70
2021/06/16 06:01:57;;;;;;;;;;;17.80;99.90;;;;;;8376188;28;19911;-70
2021/06/16 06:05:58;;;;;;;;;;;17.90;99.90;;;;;;8365486;28;19908;-70
2021/06/16 06:09:58;;;;;;;;;;;18.20;99.90;;;;;;8377750;28;19908;-69
2021/06/16 06:13:58;;;;;;;;;;;18.30;99.90;;;;;;8395763;28;20439;-70
2021/06/16 06:18:00;;;;;;;;;;;18.70;99.90;;;;;;8369734;28;19908;-70
2021/06/16 06:22:00;;;;;;;;;;;19.20;99.90;;;;;;8390939;28;19964;-73
2021/06/16 06:26:01;;;;;;;;;;;19.70;99.90;;;;;;8382531;28;19908;-73
2021/06/16 06:30:02;;;;;;;;;;;20.30;99.90;;;;;;8366124;28;19982;-72
2021/06/16 06:34:03;;;;;;;;;;;20.60;99.90;;;;;;8373004;28;20495;-72
2021/06/16 06:38:04;;;;;;;;;;;21.00;99.90;;;;;;8394816;28;19908;-70
2021/06/16 06:42:05;;;;;;;;;;;21.30;99.90;;;;;;8393939;28;19904;-69
2021/06/16 06:46:05;;;;;;;;;;;21.50;99.90;;;;;;8393767;28;20316;-70
2021/06/16 06:50:13;;;;;;;;;;;21.50;99.90;;;;;;8393909;28;19914;-71
2021/06/16 06:54:13;;;;;;;;;;;21.80;99.90;;;;;;8409294;22;19920;-72
2021/06/16 06:58:14;;;;;;;;;;;22.20;99.90;;;;;;8365813;28;19999;-71
2021/06/16 07:02:14;;;;;;;;;;;22.70;99.90;;;;;;8359210;28;19908;-70
2021/06/16 07:06:14;;;;;;;;;;;22.90;99.90;;;;;;8357850;28;19929;-70
2021/06/16 07:10:15;;;;;;;;;;;23.10;99.90;;;;;;8360003;28;19905;-70
2021/06/16 07:14:15;;;;;;;;;;;23.20;99.90;;;;;;8357573;28;19909;-70
2021/06/16 07:18:16;;;;;;;;;;;23.50;99.90;;;;;;8359972;28;19963;-70
2021/06/16 07:22:16;;;;;;;;;;;23.80;99.90;;;;;;8359073;28;20412;-71
2021/06/16 07:26:17;;;;;;;;;;;24.00;99.90;;;;;;8357153;28;19939;-68
2021/06/16 07:30:18;;;;;;;;;;;24.20;99.90;;;;;;8360021;28;19939;-70
2021/06/16 07:34:18;;;;;;;;;;;24.60;99.90;;;;;;8355536;28;19909;-71
2021/06/16 07:38:19;;;;;;;;;;;24.70;99.90;;;;;;8359289;28;19915;-70
2021/06/16 07:42:19;;;;;;;;;;;24.90;99.90;;;;;;8355380;28;19912;-70
2021/06/16 07:46:20;;;;;;;;;;;24.80;99.90;;;;;;8353658;28;20295;-70
2021/06/16 07:50:20;;;;;;;;;;;24.60;99.90;;;;;;8358490;28;19988;-69
2021/06/16 07:54:21;;;;;;;;;;;24.60;99.90;;;;;;8356923;28;19912;-66
2021/06/16 07:58:22;;;;;;;;;;;24.80;99.90;;;;;;8352836;28;19913;-67
2021/06/16 08:02:22;;;;;;;;;;;24.60;99.90;;;;;;8358528;28;19905;-67
2021/06/16 08:06:23;;;;;;;;;;;24.70;99.90;;;;;;8355014;28;20395;-67
2021/06/16 08:10:23;;;;;;;;;;;24.90;99.90;;;;;;8356990;28;19913;-67
2021/06/16 08:14:24;;;;;;;;;;;25.30;99.90;;;;;;8355446;28;20385;-69
2021/06/16 08:18:24;;;;;;;;;;;25.40;99.90;;;;;;8341127;28;19913;-68
2021/06/16 08:22:25;;;;;;;;;;;25.50;99.90;;;;;;8333774;28;19909;-69
2021/06/16 08:26:25;;;;;;;;;;;25.60;99.90;;;;;;8358279;28;19909;-68
2021/06/16 08:30:26;;;;;;;;;;;25.80;99.90;;;;;;8359479;28;19962;-69
2021/06/16 08:34:26;;;;;;;;;;;26.00;99.90;;;;;;8358938;28;19927;-68
2021/06/16 08:38:27;;;;;;;;;;;26.40;99.90;;;;;;8358570;28;19919;-69
2021/06/16 08:42:28;;;;;;;;;;;26.60;98.90;;;;;;8358954;28;19905;-69
2021/06/16 08:46:30;;;;;;;;;;;26.80;98.40;;;;;;8354142;28;19946;-66
2021/06/16 08:50:30;;;;;;;;;;;27.00;98.10;;;;;;8355311;28;19978;-66
2021/06/16 08:54:31;;;;;;;;;;;27.10;94.20;;;;;;8334593;28;19913;-65
2021/06/16 08:58:38;;;;;;;;;;;27.00;92.70;;;;;;8343379;28;19920;-66
2021/06/16 09:02:39;;;;;;;;;;;27.00;95.10;;;;;;8356420;28;19909;-66
2021/06/16 09:06:39;;;;;;;;;;;27.10;96.90;;;;;;8325633;28;20046;-66
2021/06/16 09:10:43;;;;;;;;;;;27.20;93.20;;;;;;8340376;28;19916;-66
2021/06/16 09:14:51;;;;;;;;;;;27.30;90.40;;;;;;8364636;28;19904;-66
2021/06/16 09:18:52;;;;;;;;;;;27.50;90.80;;;;;;8364034;28;19970;-66
2021/06/16 09:23:06;;;;;;;;;;;27.60;91.60;;;;;;8349357;28;19909;-66
2021/06/16 09:27:07;;;;;;;;;;;27.90;91.70;;;;;;8342558;28;19916;-66
2021/06/16 09:31:08;;;;;;;;;;;28.00;87.10;;;;;;8364330;28;19916;-65
2021/06/16 09:35:21;;;;;;;;;;;28.20;88.00;;;;;;8359947;28;19915;-66
2021/06/16 09:39:26;;;;;;;;;;;28.20;91.70;;;;;;8363323;28;19915;-66
2021/06/16 09:43:27;;;;;;;;;;;28.70;90.50;;;;;;8363476;28;19909;-66
2021/06/16 09:47:28;;;;;;;;;;;28.90;84.30;;;;;;8363473;28;19905;-66
2021/06/16 09:51:29;;;;;;;;;;;28.80;85.80;;;;;;8361685;28;20337;-66
2021/06/16 09:55:30;;;;;;;;;;;28.70;84.20;;;;;;8346732;28;19986;-65
2021/06/16 09:59:35;;;;;;;;;;;28.70;83.00;;;;;;8334899;28;19913;-66
2021/06/16 10:03:35;;;;;;;;;;;28.80;79.90;;;;;;8338385;28;19939;-65
2021/06/16 10:07:37;;;;;;;;;;;28.80;72.10;;;;;;8329235;28;19938;-66
2021/06/16 10:11:37;;;;;;;;;;;28.90;70.40;;;;;;8359453;28;20278;-66
2021/06/16 10:15:38;;;;;;;;;;;28.90;79.10;;;;;;8362679;28;19909;-66
2021/06/16 10:19:38;;;;;;;;;;;29.30;78.90;;;;;;8361184;28;20166;-66
2021/06/16 10:23:39;;;;;;;;;;;29.40;78.50;;;;;;8362116;28;19915;-67
2021/06/16 10:27:52;;;;;;;;;;;29.80;76.70;;;;;;8361683;28;20367;-67
2021/06/16 10:31:53;;;;;;;;;;;29.70;65.40;;;;;;8361509;28;19908;-67
2021/06/16 10:36:09;;;;;;;;;;;29.60;69.90;;;;;;8332495;28;19905;-67
2021/06/16 10:40:13;;;;;;;;;;;29.90;73.10;;;;;;8343308;28;20440;-67
2021/06/16 10:44:14;;;;;;;;;;;29.90;67.60;;;;;;8360952;28;19916;-66
2021/06/16 10:48:15;;;;;;;;;;;30.10;69.20;;;;;;8360183;28;19913;-67
2021/06/16 10:52:17;;;;;;;;;;;30.10;59.90;;;;;;8328641;28;20098;-67
2021/06/16 10:56:37;;;;;;;;;;;30.30;67.90;;;;;;8329496;28;19909;-67
2021/06/16 11:00:38;;;;;;;;;;;30.70;61.40;;;;;;8346871;28;20447;-67
2021/06/16 11:04:39;;;;;;;;;;;30.90;64.60;;;;;;8351605;28;19912;-67
2021/06/16 11:08:46;;;;;;;;;;;31.20;63.60;;;;;;8349733;28;19952;-67
2021/06/16 11:12:50;;;;;;;;;;;31.80;62.60;;;;;;8347871;28;19905;-67
2021/06/16 11:16:51;;;;;;;;;;;31.60;61.80;;;;;;8339922;28;20420;-67
2021/06/16 11:20:56;;;;;;;;;;;32.00;57.60;;;;;;8345820;28;19974;-67
2021/06/16 11:25:16;;;;;;;;;;;32.30;59.90;;;;;;8350419;28;19916;-67
2021/06/16 11:29:48;;;;;;;;;;;32.70;56.10;;;;;;8349422;28;20428;-67
2021/06/16 11:33:50;;;;;;;;;;;32.40;53.40;;;;;;8329793;28;19916;-67
2021/06/16 11:37:58;;;;;;;;;;;33.30;54.60;;;;;;8357743;28;19908;-67
2021/06/16 11:41:59;;;;;;;;;;;34.90;53.60;;;;;;8356126;28;20386;-67
2021/06/16 11:46:00;;;;;;;;;;;36.50;44.20;;;;;;8357310;28;19912;-68
2021/06/16 11:50:01;;;;;;;;;;;36.80;42.50;;;;;;8329210;28;19905;-66
2021/06/16 11:58:34;;;;;;;;;;;36.40;42.20;;;;;;8355435;28;20271;-66
2021/06/16 12:02:35;;;;;;;;;;;35.50;39.50;;;;;;8350216;28;23207;-67
2021/06/16 12:06:35;;;;;;;;;;;34.50;43.90;;;;;;8356649;28;20302;-66
2021/06/16 12:10:36;;;;;;;;;;;34.40;44.20;;;;;;8357056;28;19916;-66
2021/06/16 12:14:36;;;;;;;;;;;33.70;47.40;;;;;;8355473;28;19913;-68
2021/06/16 12:18:37;;;;;;;;;;;34.00;47.20;;;;;;8355973;28;20497;-66
2021/06/16 12:22:37;;;;;;;;;;;34.60;44.00;;;;;;8354641;28;19913;-66
2021/06/16 12:26:39;;;;;;;;;;;34.50;44.70;;;;;;8354858;28;19960;-66
2021/06/16 12:30:39;;;;;;;;;;;34.40;42.40;;;;;;8355047;28;19916;-66
2021/06/16 12:34:54;;;;;;;;;;;34.80;41.50;;;;;;8353810;28;19975;-67
2021/06/16 12:39:18;;;;;;;;;;;35.50;40.90;;;;;;8355564;28;19913;-68
2021/06/16 12:43:23;;;;;;;;;;;35.20;42.20;;;;;;8359284;28;19916;-67
2021/06/16 12:47:30;;;;;;;;;;;36.20;39.00;;;;;;8361012;28;19916;-67
2021/06/16 12:51:31;;;;;;;;;;;37.60;36.10;;;;;;8361094;28;19995;-67
2021/06/16 12:55:31;;;;;;;;;;;40.10;36.60;;;;;;8392515;22;19986;-67
2021/06/16 12:59:37;;;;;;;;;;;40.90;32.20;;;;;;8363096;28;19975;-68
2021/06/16 13:03:44;;;;;;;;;;;41.80;31.50;;;;;;8377779;28;19912;-67
2021/06/16 13:07:46;;;;;;;;;;;41.10;33.20;;;;;;8377679;28;20394;-68
2021/06/16 13:11:47;;;;;;;;;;;40.80;30.80;;;;;;8396399;28;19913;-68
2021/06/16 13:15:51;;;;;;;;;;;40.80;34.20;;;;;;8396555;28;19997;-66
2021/06/16 13:19:58;;;;;;;;;;;41.70;34.20;;;;;;8396310;28;19920;-67
2021/06/16 13:24:03;;;;;;;;;;;42.70;30.20;;;;;;8413756;28;19911;-67
2021/06/16 13:28:03;;;;;;;;;;;42.80;32.20;;;;;;8430089;28;19912;-68
2021/06/16 13:32:13;;;;;;;;;;;43.00;31.80;;;;;;8391848;28;19916;-67
2021/06/16 13:36:15;;;;;;;;;;;43.70;31.30;;;;;;8387897;28;19940;-68
2021/06/16 13:40:16;;;;;;;;;;;44.00;29.00;;;;;;8391244;28;19935;-67
2021/06/16 13:44:17;;;;;;;;;;;44.60;28.50;;;;;;8388646;28;19916;-69
2021/06/16 13:48:17;;;;;;;;;;;44.70;27.50;;;;;;8392170;28;20080;-69
2021/06/16 13:52:21;;;;;;;;;;;43.60;28.70;;;;;;8392839;28;20270;-68
2021/06/16 13:56:21;;;;;;;;;;;44.10;27.80;;;;;;8390417;28;19928;-67
2021/06/16 14:00:22;;;;;;;;;;;43.20;28.10;;;;;;8383376;28;19917;-67
2021/06/16 14:04:22;;;;;;;;;;;42.80;30.00;;;;;;8379494;28;19908;-68
2021/06/16 14:08:23;;;;;;;;;;;43.30;31.20;;;;;;8374374;28;19993;-67
2021/06/16 14:12:24;;;;;;;;;;;43.80;27.00;;;;;;8395401;28;19925;-68
2021/06/16 14:16:25;;;;;;;;;;;43.20;26.60;;;;;;8379461;28;19965;-67
2021/06/16 14:20:26;;;;;;;;;;;41.80;28.80;;;;;;8371995;28;19913;-68
2021/06/16 14:24:26;;;;;;;;;;;40.70;29.40;;;;;;8392237;28;19916;-68
2021/06/16 14:28:26;;;;;;;;;;;40.70;31.50;;;;;;8389936;28;19915;-68
2021/06/16 14:32:27;;;;;;;;;;;41.00;29.90;;;;;;8392048;28;19917;-67
2021/06/16 14:36:27;;;;;;;;;;;41.30;31.30;;;;;;8360501;28;19909;-68
2021/06/16 14:40:28;;;;;;;;;;;42.70;29.40;;;;;;8367314;28;20378;-67
2021/06/16 14:44:28;;;;;;;;;;;42.20;29.10;;;;;;8386593;28;20401;-66
2021/06/16 14:48:29;;;;;;;;;;;41.20;29.20;;;;;;8391410;28;19919;-66
2021/06/16 14:52:29;;;;;;;;;;;39.80;29.50;;;;;;8386606;28;19912;-67
2021/06/16 14:56:30;;;;;;;;;;;39.70;32.20;;;;;;8416611;28;19916;-67
2021/06/16 15:00:30;;;;;;;;;;;39.30;34.00;;;;;;8376668;28;20306;-67
2021/06/16 15:04:31;;;;;;;;;;;39.50;33.30;;;;;;8382229;28;19913;-67
2021/06/16 15:08:31;;;;;;;;;;;39.90;32.40;;;;;;8380300;28;20458;-67
2021/06/16 15:12:32;;;;;;;;;;;39.50;32.20;;;;;;8373023;28;20138;-68
2021/06/16 15:16:32;;;;;;;;;;;39.20;30.00;;;;;;8360168;28;20338;-68
2021/06/16 15:20:33;;;;;;;;;;;38.70;31.70;;;;;;8361028;28;19912;-67
2021/06/16 15:24:33;;;;;;;;;;;38.20;34.70;;;;;;8393613;28;19916;-67
2021/06/16 15:28:34;;;;;;;;;;;39.00;32.60;;;;;;8387612;28;19913;-68
2021/06/16 15:32:35;;;;;;;;;;;39.40;31.00;;;;;;8374389;28;19974;-69
2021/06/16 15:36:35;;;;;;;;;;;38.80;33.80;;;;;;8375855;28;20328;-68
2021/06/16 15:40:36;;;;;;;;;;;38.80;34.20;;;;;;8375787;28;19998;-67
2021/06/16 15:44:37;;;;;;;;;;;38.70;31.50;;;;;;8385932;28;19944;-68
2021/06/16 15:48:37;;;;;;;;;;;38.50;35.40;;;;;;8391587;28;19912;-69
2021/06/16 15:52:38;;;;;;;;;;;39.40;33.60;;;;;;8395502;28;20164;-68
2021/06/16 15:56:38;;;;;;;;;;;39.50;31.50;;;;;;8389153;28;19920;-68
2021/06/16 16:00:39;;;;;;;;;;;38.50;33.50;;;;;;8384200;28;19921;-68
2021/06/16 16:04:39;;;;;;;;;;;38.00;35.00;;;;;;8381585;28;19916;-68
2021/06/16 16:08:40;;;;;;;;;;;38.00;34.10;;;;;;8391087;28;19919;-67
2021/06/16 16:12:41;;;;;;;;;;;37.80;35.40;;;;;;8382211;28;19916;-67
2021/06/16 16:16:41;;;;;;;;;;;37.00;35.70;;;;;;8376943;28;19925;-67
2021/06/16 16:20:44;;;;;;;;;;;36.20;36.30;;;;;;8357660;28;20387;-68
2021/06/16 16:24:44;;;;;;;;;;;35.90;37.60;;;;;;8403499;28;19908;-68
2021/06/16 16:28:45;;;;;;;;;;;36.70;37.00;;;;;;8425526;28;19908;-68
2021/06/16 16:32:45;;;;;;;;;;;37.10;33.90;;;;;;8421886;28;19908;-68
2021/06/16 16:36:46;;;;;;;;;;;37.00;34.50;;;;;;8390603;28;19908;-67
2021/06/16 16:40:47;;;;;;;;;;;36.20;35.60;;;;;;8391970;28;20322;-68
2021/06/16 16:44:47;;;;;;;;;;;35.40;36.60;;;;;;8391618;28;19913;-68
2021/06/16 16:48:49;;;;;;;;;;;35.10;37.00;;;;;;8391383;28;20049;-68
2021/06/16 16:52:50;;;;;;;;;;;34.70;38.80;;;;;;8398128;28;19927;-68
2021/06/16 16:56:51;;;;;;;;;;;34.00;38.70;;;;;;8423562;28;19952;-68
2021/06/16 17:00:51;;;;;;;;;;;33.90;41.40;;;;;;8425079;28;19920;-68
2021/06/16 17:04:52;;;;;;;;;;;34.50;42.20;;;;;;8404955;28;19962;-68
2021/06/16 17:08:53;;;;;;;;;;;35.00;42.30;;;;;;8389511;28;19915;-67
2021/06/16 17:12:53;;;;;;;;;;;35.00;41.20;;;;;;8390932;28;19908;-68
2021/06/16 17:16:54;;;;;;;;;;;35.00;43.80;;;;;;8391429;28;20003;-67
2021/06/16 17:20:54;;;;;;;;;;;35.00;44.00;;;;;;8390265;28;19913;-67
2021/06/16 17:24:55;;;;;;;;;;;34.60;44.10;;;;;;8414271;28;19954;-68
2021/06/16 17:28:55;;;;;;;;;;;33.60;45.40;;;;;;8425654;28;19909;-67
2021/06/16 17:32:56;;;;;;;;;;;33.00;47.60;;;;;;8427145;28;19926;-68
2021/06/16 17:37:00;;;;;;;;;;;32.20;48.00;;;;;;8397056;28;20002;-67
2021/06/16 17:41:02;;;;;;;;;;;31.80;48.00;;;;;;8395892;28;20366;-67
2021/06/16 17:45:03;;;;;;;;;;;31.20;51.80;;;;;;8396826;28;19912;-68
2021/06/16 17:49:04;;;;;;;;;;;30.50;50.90;;;;;;8394710;28;19908;-67
2021/06/16 17:53:06;;;;;;;;;;;29.90;51.90;;;;;;8398597;28;20046;-68
2021/06/16 17:57:09;;;;;;;;;;;29.30;52.90;;;;;;8361536;28;19909;-68
2021/06/16 18:01:10;;;;;;;;;;;28.80;54.60;;;;;;8364563;28;19913;-67
2021/06/16 18:05:11;;;;;;;;;;;28.50;54.30;;;;;;8386578;28;19919;-68
2021/06/16 18:09:11;;;;;;;;;;;28.40;53.40;;;;;;8382976;28;19920;-69
2021/06/16 18:13:12;;;;;;;;;;;28.30;55.80;;;;;;8388957;28;20310;-69
2021/06/16 18:17:12;;;;;;;;;;;28.20;56.20;;;;;;8378791;28;20448;-69
2021/06/16 18:21:13;;;;;;;;;;;27.90;58.80;;;;;;8376320;28;20439;-68
2021/06/16 18:25:14;;;;;;;;;;;27.40;58.30;;;;;;8394286;28;19912;-68
2021/06/16 18:29:18;;;;;;;;;;;27.10;58.90;;;;;;8360855;28;19978;-69
2021/06/16 18:33:18;;;;;;;;;;;26.90;58.70;;;;;;8378907;28;20033;-68
2021/06/16 18:37:22;;;;;;;;;;;26.50;63.70;;;;;;8385490;28;19913;-68
2021/06/16 18:41:23;;;;;;;;;;;26.10;68.00;;;;;;8393426;28;19948;-69
2021/06/16 18:45:25;;;;;;;;;;;25.80;68.70;;;;;;8391579;28;19922;-69
2021/06/16 18:49:27;;;;;;;;;;;25.50;67.00;;;;;;8385633;28;19920;-68
2021/06/16 18:53:27;;;;;;;;;;;25.20;73.40;;;;;;8375837;28;19964;-69
2021/06/16 18:57:28;;;;;;;;;;;24.60;77.90;;;;;;8383895;28;19917;-69
2021/06/16 19:01:30;;;;;;;;;;;24.20;83.70;;;;;;8381963;28;19913;-67
2021/06/16 19:05:32;;;;;;;;;;;23.70;90.40;;;;;;8364521;28;19913;-69
2021/06/16 19:09:33;;;;;;;;;;;23.60;93.10;;;;;;8376365;28;19916;-67
2021/06/16 19:13:34;;;;;;;;;;;23.50;95.30;;;;;;8365196;28;19923;-68
2021/06/16 19:17:35;;;;;;;;;;;23.50;98.20;;;;;;8362800;28;19909;-67
2021/06/16 19:21:35;;;;;;;;;;;23.20;99.90;;;;;;8386843;28;19912;-69
2021/06/16 19:25:37;;;;;;;;;;;23.00;99.90;;;;;;8377235;28;19939;-68
2021/06/16 19:29:38;;;;;;;;;;;22.80;99.90;;;;;;8368709;28;19923;-69
2021/06/16 19:33:39;;;;;;;;;;;22.40;99.90;;;;;;8361721;28;20259;-69
2021/06/16 19:37:39;;;;;;;;;;;22.00;99.90;;;;;;8366872;28;20467;-68
2021/06/16 19:41:40;;;;;;;;;;;21.70;99.90;;;;;;8370278;28;19913;-69
2021/06/16 19:45:41;;;;;;;;;;;21.60;99.90;;;;;;8360989;28;19956;-70
2021/06/16 19:49:42;;;;;;;;;;;21.30;99.90;;;;;;8365038;28;19955;-71
2021/06/16 19:53:42;;;;;;;;;;;21.10;99.90;;;;;;8369703;28;19942;-68
2021/06/16 19:57:43;;;;;;;;;;;21.00;99.90;;;;;;8357700;22;19929;-70
2021/06/16 20:01:43;;;;;;;;;;;20.80;99.90;;;;;;8290374;28;19924;-71
2021/06/16 20:05:44;;;;;;;;;;;20.60;99.90;;;;;;8305010;28;19948;-70
2021/06/16 20:09:45;;;;;;;;;;;20.40;99.90;;;;;;8305961;28;20336;-65
2021/06/16 20:13:46;;;;;;;;;;;20.40;99.90;;;;;;8304395;28;19923;-65
2021/06/16 20:17:47;;;;;;;;;;;20.40;99.90;;;;;;8303351;28;20298;-65
2021/06/16 20:21:47;;;;;;;;;;;20.00;99.90;;;;;;8307538;28;20485;-65
2021/06/16 20:25:48;;;;;;;;;;;19.70;99.90;;;;;;8304207;28;19917;-65
2021/06/16 20:29:48;;;;;;;;;;;19.60;99.90;;;;;;8305310;28;19939;-65
2021/06/16 20:33:49;;;;;;;;;;;19.80;99.90;;;;;;8301456;28;19917;-65
2021/06/16 20:37:50;;;;;;;;;;;19.40;99.90;;;;;;8305174;28;19959;-65
2021/06/16 20:41:52;;;;;;;;;;;19.20;99.90;;;;;;8304448;28;19929;-65
2021/06/16 20:45:52;;;;;;;;;;;19.20;99.90;;;;;;8306058;28;19931;-65
2021/06/16 20:49:53;;;;;;;;;;;19.00;99.90;;;;;;8311112;28;19950;-65
2021/06/16 20:53:53;;;;;;;;;;;18.90;99.90;;;;;;8308276;28;19932;-65
2021/06/16 20:57:54;;;;;;;;;;;18.90;99.90;;;;;;8301230;28;19948;-65
2021/06/16 21:01:54;;;;;;;;;;;18.80;99.90;;;;;;8308060;28;19917;-65
2021/06/16 21:05:55;;;;;;;;;;;18.60;99.90;;;;;;8312873;28;20276;-65
2021/06/16 21:09:56;;;;;;;;;;;18.70;99.90;;;;;;8321116;28;19943;-65
2021/06/16 21:13:56;;;;;;;;;;;18.50;99.90;;;;;;8329632;28;20406;-65
2021/06/16 21:17:57;;;;;;;;;;;18.40;99.90;;;;;;8313536;28;19944;-65
2021/06/16 21:22:01;;;;;;;;;;;18.50;99.90;;;;;;8294504;28;19956;-65
2021/06/16 21:26:02;;;;;;;;;;;18.20;99.90;;;;;;8287332;28;20003;-65
2021/06/16 21:30:03;;;;;;;;;;;18.10;99.90;;;;;;8296078;28;19954;-65
2021/06/16 21:34:04;;;;;;;;;;;17.90;99.90;;;;;;8285108;28;19916;-65
2021/06/16 21:38:04;;;;;;;;;;;17.70;99.90;;;;;;8286276;28;19921;-65
2021/06/16 21:42:05;;;;;;;;;;;17.50;99.90;;;;;;8296013;28;19909;-65
2021/06/16 21:46:06;;;;;;;;;;;17.40;99.90;;;;;;8297615;28;19944;-65
2021/06/16 21:50:07;;;;;;;;;;;17.30;99.90;;;;;;8297343;28;19916;-65
2021/06/16 21:54:17;;;;;;;;;;;17.40;99.90;;;;;;8297847;28;19948;-65
2021/06/16 21:58:17;;;;;;;;;;;17.40;99.90;;;;;;8297355;28;19917;-65
2021/06/16 22:02:18;;;;;;;;;;;17.10;99.90;;;;;;8297520;28;19920;-65
2021/06/16 22:06:18;;;;;;;;;;;17.40;99.90;;;;;;8297211;28;20008;-65
2021/06/16 22:10:19;;;;;;;;;;;17.50;99.90;;;;;;8297179;28;19914;-65
2021/06/16 22:14:19;;;;;;;;;;;17.50;99.90;;;;;;8295082;28;19916;-65
2021/06/16 22:18:20;;;;;;;;;;;17.30;99.90;;;;;;8295313;28;19952;-64
2021/06/16 22:22:20;;;;;;;;;;;17.40;99.90;;;;;;8296842;28;20376;-64
2021/06/16 22:26:21;;;;;;;;;;;17.30;99.90;;;;;;8295446;28;19920;-65
2021/06/16 22:30:22;;;;;;;;;;;17.00;99.90;;;;;;8296669;28;19909;-65
2021/06/16 22:34:23;;;;;;;;;;;16.90;99.90;;;;;;8296159;28;19914;-65
2021/06/16 22:38:24;;;;;;;;;;;16.90;99.90;;;;;;8295647;28;19972;-65
2021/06/16 22:42:24;;;;;;;;;;;16.90;99.90;;;;;;8296148;28;20364;-65
2021/06/16 22:46:25;;;;;;;;;;;16.70;99.90;;;;;;8295950;28;19910;-65
2021/06/16 22:50:27;;;;;;;;;;;16.40;99.90;;;;;;8295345;28;20067;-65
2021/06/16 22:54:27;;;;;;;;;;;16.10;99.90;;;;;;8294594;28;19945;-65
2021/06/16 22:58:28;;;;;;;;;;;16.00;99.90;;;;;;8295536;28;19953;-65
2021/06/16 23:02:28;;;;;;;;;;;15.90;99.90;;;;;;8295799;28;19944;-65
2021/06/16 23:06:29;;;;;;;;;;;16.30;99.90;;;;;;8295377;28;20483;-65
2021/06/16 23:10:29;;;;;;;;;;;16.20;99.90;;;;;;8295469;28;20407;-65
2021/06/16 23:14:30;;;;;;;;;;;16.10;99.90;;;;;;8295541;28;20369;-65
2021/06/16 23:18:30;;;;;;;;;;;16.00;99.90;;;;;;8294942;28;20066;-65
2021/06/16 23:22:31;;;;;;;;;;;16.00;99.90;;;;;;8295255;28;19948;-65
2021/06/16 23:26:31;;;;;;;;;;;15.80;99.90;;;;;;8295120;28;19917;-65
2021/06/16 23:30:33;;;;;;;;;;;15.60;99.90;;;;;;8295247;28;19920;-65